createdAt,value
2019-05-02T00:02:18.377Z,18.60
2019-05-02T00:04:51.043Z,13.40
2019-05-02T00:07:20.222Z,16.77
2019-05-02T00:09:48.378Z,15.93
2019-05-02T00:12:20.040Z,14.40
2019-05-02T00:14:48.633Z,12.77
2019-05-02T00:17:20.455Z,17.90
2019-05-02T00:19:51.280Z,16.57
2019-05-02T00:22:20.717Z,15.93
2019-05-02T00:24:48.994Z,15.20
2019-05-02T00:27:17.306Z,17.10
2019-05-02T00:29:46.638Z,15.17
2019-05-02T00:32:18.294Z,15.40
2019-05-02T00:34:45.917Z,18.87
2019-05-02T00:37:18.786Z,16.83
2019-05-02T00:39:49.133Z,17.00
2019-05-02T00:42:17.559Z,15.47
2019-05-02T00:44:48.158Z,18.60
2019-05-02T00:47:42.310Z,16.10
2019-05-02T00:50:11.176Z,16.93
2019-05-02T00:52:40.791Z,18.83
2019-05-02T00:55:09.101Z,17.40
2019-05-02T00:57:37.491Z,17.07
2019-05-02T01:00:07.510Z,22.07
2019-05-02T01:02:42.167Z,20.67
2019-05-02T01:05:13.400Z,21.00
2019-05-02T01:07:41.581Z,18.10
2019-05-02T01:10:11.350Z,24.20
2019-05-02T01:12:39.873Z,21.30
2019-05-02T01:15:11.319Z,22.13
2019-05-02T01:17:39.512Z,21.57
2019-05-02T01:20:09.430Z,23.60
2019-05-02T01:22:37.771Z,22.03
2019-05-02T01:25:06.400Z,20.47
2019-05-02T01:27:42.863Z,23.70
2019-05-02T01:30:42.351Z,25.50
2019-05-02T01:33:21.468Z,22.67
2019-05-02T01:36:01.727Z,29.60
2019-05-02T01:38:36.777Z,25.90
2019-05-02T01:41:05.509Z,26.17
2019-05-02T01:43:33.653Z,28.80
2019-05-02T01:46:01.864Z,27.07
2019-05-02T01:48:30.394Z,27.80
2019-05-02T01:50:58.846Z,28.17
2019-05-02T01:53:29.457Z,28.53
2019-05-02T01:55:59.269Z,32.97
2019-05-02T01:58:27.853Z,32.50
2019-05-02T02:00:56.192Z,31.33
2019-05-02T02:03:24.341Z,29.93
2019-05-02T02:05:52.712Z,31.40
2019-05-02T02:08:21.333Z,32.60
2019-05-02T02:10:50.462Z,30.70
2019-05-02T02:13:20.097Z,32.10
2019-05-02T02:15:48.914Z,29.23
2019-05-02T02:18:22.082Z,31.07
2019-05-02T02:20:58.932Z,37.57
2019-05-02T02:23:34.954Z,29.57
2019-05-02T02:26:06.712Z,34.57
2019-05-02T02:28:36.810Z,30.97
2019-05-02T02:31:07.776Z,37.17
2019-05-02T02:33:41.005Z,35.27
2019-05-02T02:36:05.267Z,36.97
2019-05-02T02:38:35.377Z,32.27
2019-05-02T02:41:06.488Z,35.37
2019-05-02T02:43:35.056Z,31.67
2019-05-02T02:46:19.634Z,32.23
2019-05-02T02:48:48.121Z,33.60
2019-05-02T02:51:23.609Z,36.90
2019-05-02T02:53:46.955Z,34.57
2019-05-02T02:56:15.606Z,34.10
2019-05-02T02:58:47.489Z,39.20
2019-05-02T03:01:14.213Z,32.13
2019-05-02T03:03:42.370Z,38.43
2019-05-02T03:06:11.007Z,33.27
2019-05-02T03:08:46.319Z,35.63
2019-05-02T03:11:22.730Z,30.93
2019-05-02T03:14:06.699Z,33.33
2019-05-02T03:16:30.914Z,33.33
2019-05-02T03:18:59.581Z,36.93
2019-05-02T03:21:28.098Z,34.40
2019-05-02T03:24:03.310Z,36.33
2019-05-02T03:26:27.151Z,41.57
2019-05-02T03:28:58.391Z,37.00
2019-05-02T03:31:30.318Z,36.87
2019-05-02T03:34:00.495Z,36.10
2019-05-02T03:36:34.424Z,37.00
2019-05-02T03:38:58.896Z,34.13
2019-05-02T03:41:27.707Z,36.97
2019-05-02T03:44:09.811Z,39.30
2019-05-02T03:46:27.126Z,34.50
2019-05-02T03:49:05.947Z,42.03
2019-05-02T03:51:25.965Z,40.27
2019-05-02T03:54:06.444Z,39.77
2019-05-02T03:56:25.075Z,39.67
2019-05-02T03:58:56.494Z,36.33
2019-05-02T04:01:25.010Z,34.73
2019-05-02T04:03:53.663Z,37.17
2019-05-02T04:06:23.802Z,37.47
2019-05-02T04:08:58.892Z,37.17
2019-05-02T04:11:25.770Z,36.97
2019-05-02T04:13:57.251Z,37.00
2019-05-02T04:16:28.885Z,38.40
2019-05-02T04:19:01.518Z,37.87
2019-05-02T04:21:30.022Z,40.03
2019-05-02T04:24:06.624Z,39.50
2019-05-02T04:26:29.078Z,36.63
2019-05-02T04:28:57.877Z,37.50
2019-05-02T04:31:31.560Z,31.93
2019-05-02T04:33:56.478Z,36.87
2019-05-02T04:36:25.024Z,40.13
2019-05-02T04:38:53.531Z,40.23
2019-05-02T04:41:28.536Z,36.87
2019-05-02T04:43:57.410Z,36.83
2019-05-02T04:46:30.127Z,36.50
2019-05-02T04:48:53.410Z,38.07
2019-05-02T04:51:22.511Z,38.43
2019-05-02T04:53:50.771Z,38.40
2019-05-02T04:56:19.031Z,38.53
2019-05-02T04:58:49.330Z,34.33
2019-05-02T05:01:21.323Z,38.33
2019-05-02T05:03:57.382Z,40.07
2019-05-02T05:06:19.223Z,39.43
2019-05-02T05:08:48.228Z,40.77
2019-05-02T05:11:20.890Z,36.70
2019-05-02T05:13:47.950Z,36.07
2019-05-02T05:16:18.463Z,37.47
2019-05-02T05:18:51.263Z,42.43
2019-05-02T05:21:18.150Z,36.37
2019-05-02T05:24:09.655Z,34.00
2019-05-02T05:26:42.938Z,38.97
2019-05-02T05:29:13.986Z,35.20
2019-05-02T05:31:40.784Z,35.43
2019-05-02T05:34:09.869Z,33.53
2019-05-02T05:36:38.857Z,36.33
2019-05-02T05:39:09.473Z,35.93
2019-05-02T05:41:37.902Z,34.87
2019-05-02T05:44:07.833Z,38.63
2019-05-02T05:46:40.600Z,35.87
2019-05-02T05:49:10.573Z,37.07
2019-05-02T05:51:37.540Z,38.83
2019-05-02T05:54:07.717Z,39.50
2019-05-02T05:56:39.701Z,36.63
2019-05-02T05:59:07.805Z,36.83
2019-05-02T06:01:38.416Z,35.37
2019-05-02T06:04:08.034Z,41.13
2019-05-02T06:06:37.779Z,37.33
2019-05-02T06:09:07.905Z,39.10
2019-05-02T06:11:36.304Z,41.13
2019-05-02T06:14:04.963Z,40.33
2019-05-02T06:16:35.251Z,45.50
2019-05-02T06:19:03.798Z,41.30
2019-05-02T06:21:32.299Z,48.63
2019-05-02T06:24:00.817Z,43.10
2019-05-02T06:26:29.046Z,41.37
2019-05-02T06:28:57.200Z,44.90
2019-05-02T06:31:25.740Z,46.77
2019-05-02T06:33:53.886Z,45.30
2019-05-02T06:36:22.342Z,41.40
2019-05-02T06:38:52.122Z,42.63
2019-05-02T06:41:22.250Z,43.57
2019-05-02T06:43:50.624Z,49.13
2019-05-02T06:46:22.001Z,41.13
2019-05-02T06:48:52.222Z,41.83
2019-05-02T06:51:20.986Z,46.93
2019-05-02T06:53:49.799Z,43.07
2019-05-02T06:56:18.934Z,38.73
2019-05-02T06:58:47.331Z,46.37
2019-05-02T07:01:16.204Z,43.43
2019-05-02T07:03:47.567Z,45.50
2019-05-02T07:06:16.776Z,49.17
2019-05-02T07:08:45.746Z,49.10
2019-05-02T07:11:14.144Z,46.93
2019-05-02T07:13:43.808Z,44.77
2019-05-02T07:16:38.818Z,49.27
2019-05-02T07:19:29.184Z,45.93
2019-05-02T07:21:58.496Z,42.10
2019-05-02T07:24:30.600Z,41.30
2019-05-02T07:26:58.140Z,48.13
2019-05-02T07:29:26.513Z,46.07
2019-05-02T07:31:54.811Z,47.23
2019-05-02T07:34:23.420Z,42.13
2019-05-02T07:36:51.615Z,57.33
2019-05-02T07:39:20.111Z,51.00
2019-05-02T07:41:48.582Z,45.07
2019-05-02T07:44:16.837Z,48.20
2019-05-02T07:46:51.583Z,47.13
2019-05-02T07:49:15.184Z,47.57
2019-05-02T07:51:43.631Z,50.40
2019-05-02T07:54:12.242Z,49.43
2019-05-02T07:56:40.994Z,48.03
2019-05-02T07:59:09.278Z,52.83
2019-05-02T08:01:37.787Z,47.10
2019-05-02T08:04:11.014Z,58.43
2019-05-02T08:06:40.168Z,54.73
2019-05-02T08:09:09.205Z,53.53
2019-05-02T08:11:38.533Z,45.63
2019-05-02T08:14:07.003Z,54.67
2019-05-02T08:16:35.576Z,53.50
2019-05-02T08:19:05.400Z,50.27
2019-05-02T08:21:34.241Z,53.93
2019-05-02T08:24:03.631Z,53.50
2019-05-02T08:27:01.214Z,57.50
2019-05-02T08:29:30.799Z,50.80
2019-05-02T08:31:59.146Z,54.07
2019-05-02T08:34:33.179Z,57.17
2019-05-02T08:37:04.584Z,54.17
2019-05-02T08:39:33.892Z,57.73
2019-05-02T08:42:03.906Z,60.40
2019-05-02T08:44:32.146Z,61.67
2019-05-02T08:47:00.583Z,60.33
2019-05-02T08:49:29.292Z,58.17
2019-05-02T08:51:57.751Z,55.70
2019-05-02T08:54:27.924Z,55.37
2019-05-02T08:56:58.912Z,59.00
2019-05-02T08:59:26.690Z,50.80
2019-05-02T09:01:55.050Z,61.67
2019-05-02T09:04:24.239Z,53.67
2019-05-02T09:06:58.722Z,58.47
2019-05-02T09:09:28.044Z,56.20
2019-05-02T09:12:03.267Z,63.07
2019-05-02T09:14:25.077Z,50.97
2019-05-02T09:16:53.609Z,59.43
2019-05-02T09:19:26.281Z,56.23
2019-05-02T09:21:52.597Z,54.47
2019-05-02T09:24:23.814Z,51.23
2019-05-02T09:26:51.882Z,56.27
2019-05-02T09:29:22.214Z,53.67
2019-05-02T09:31:52.504Z,53.40
2019-05-02T09:34:22.857Z,48.33
2019-05-02T09:36:53.155Z,52.70
2019-05-02T09:39:22.728Z,55.30
2019-05-02T09:41:52.639Z,54.13
2019-05-02T09:44:22.379Z,47.87
2019-05-02T09:46:55.161Z,48.23
2019-05-02T09:49:22.097Z,50.00
2019-05-02T09:51:59.281Z,47.57
2019-05-02T09:54:23.195Z,44.43
2019-05-02T09:56:52.408Z,49.90
2019-05-02T09:59:30.114Z,41.33
2019-05-02T10:01:55.589Z,43.87
2019-05-02T10:04:24.488Z,41.43
2019-05-02T10:06:52.710Z,42.47
2019-05-02T10:09:24.307Z,43.93
2019-05-02T10:11:52.474Z,44.73
2019-05-02T10:14:22.638Z,46.30
2019-05-02T10:17:09.724Z,42.00
2019-05-02T10:19:57.287Z,38.90
2019-05-02T10:22:41.117Z,41.90
2019-05-02T10:25:11.791Z,41.07
2019-05-02T10:27:46.012Z,40.37
2019-05-02T10:30:15.665Z,40.23
2019-05-02T10:32:47.273Z,38.70
2019-05-02T10:35:17.055Z,37.23
2019-05-02T10:37:45.558Z,38.70
2019-05-02T10:40:17.155Z,40.60
2019-05-02T10:42:45.429Z,41.50
2019-05-02T10:45:16.710Z,36.07
2019-05-02T10:47:44.903Z,40.73
2019-05-02T10:50:27.403Z,42.73
2019-05-02T10:52:55.985Z,37.00
2019-05-02T10:55:25.207Z,40.80
2019-05-02T10:57:54.146Z,43.30
2019-05-02T11:00:29.571Z,42.23
2019-05-02T11:03:17.515Z,39.40
2019-05-02T11:05:49.066Z,42.33
2019-05-02T11:08:17.299Z,36.77
2019-05-02T11:10:45.809Z,40.43
2019-05-02T11:13:23.783Z,40.80
2019-05-02T11:16:12.228Z,35.73
2019-05-02T11:18:59.030Z,34.27
2019-05-02T11:21:27.568Z,37.20
2019-05-02T11:23:56.318Z,37.80
2019-05-02T11:26:25.515Z,37.50
2019-05-02T11:28:53.902Z,34.17
2019-05-02T11:31:22.417Z,31.03
2019-05-02T11:33:52.733Z,39.00
2019-05-02T11:36:22.300Z,39.87
2019-05-02T11:38:59.793Z,34.70
2019-05-02T11:41:22.399Z,32.90
2019-05-02T11:43:54.148Z,39.53
2019-05-02T11:46:22.068Z,36.17
2019-05-02T11:48:56.326Z,36.77
2019-05-02T11:51:22.529Z,34.13
2019-05-02T11:53:52.758Z,42.10
2019-05-02T11:56:22.229Z,37.73
2019-05-02T11:58:52.851Z,43.03
2019-05-02T12:01:34.741Z,37.23
2019-05-02T12:03:52.663Z,29.17
2019-05-02T12:06:22.485Z,31.47
2019-05-02T12:08:52.478Z,31.20
2019-05-02T12:11:22.921Z,35.73
2019-05-02T12:13:52.835Z,35.20
2019-05-02T12:16:22.996Z,33.07
2019-05-02T12:18:53.804Z,33.93
2019-05-02T12:21:22.848Z,38.47
2019-05-02T12:23:52.652Z,39.10
2019-05-02T12:26:22.099Z,29.57
2019-05-02T12:28:52.463Z,34.30
2019-05-02T12:31:28.818Z,35.13
2019-05-02T12:33:58.796Z,39.63
2019-05-02T12:36:27.341Z,34.90
2019-05-02T12:38:55.566Z,33.50
2019-05-02T12:41:25.285Z,31.63
2019-05-02T12:43:53.633Z,33.13
2019-05-02T12:46:22.296Z,30.30
2019-05-02T12:48:52.026Z,29.83
2019-05-02T12:51:22.360Z,32.57
2019-05-02T12:53:52.660Z,32.07
2019-05-02T12:56:22.881Z,27.20
2019-05-02T12:58:52.979Z,33.57
2019-05-02T13:01:22.192Z,30.53
2019-05-02T13:03:59.403Z,32.77
2019-05-02T13:06:27.980Z,33.80
2019-05-02T13:08:56.410Z,34.67
2019-05-02T13:11:52.622Z,33.17
2019-05-02T13:14:24.496Z,33.50
2019-05-02T13:17:01.010Z,35.90
2019-05-02T13:19:36.797Z,31.20
2019-05-02T13:22:04.554Z,27.13
2019-05-02T13:24:35.926Z,32.00
2019-05-02T13:27:09.299Z,37.83
2019-05-02T13:29:37.985Z,34.50
2019-05-02T13:32:17.411Z,30.20
2019-05-02T13:34:55.545Z,27.13
2019-05-02T13:37:23.749Z,30.60
2019-05-02T13:40:02.783Z,28.97
2019-05-02T13:42:31.151Z,28.53
2019-05-02T13:45:26.481Z,33.60
2019-05-02T13:47:55.132Z,30.07
2019-05-02T13:50:23.972Z,29.87
2019-05-02T13:52:57.713Z,32.23
2019-05-02T13:55:27.650Z,33.13
2019-05-02T13:57:55.942Z,30.10
2019-05-02T14:00:31.919Z,31.60
2019-05-02T14:03:02.863Z,32.50
2019-05-02T14:05:31.760Z,27.63
2019-05-02T14:08:19.736Z,28.17
2019-05-02T14:10:52.688Z,28.23
2019-05-02T14:13:22.142Z,29.43
2019-05-02T14:15:52.624Z,28.07
2019-05-02T14:18:28.726Z,29.80
2019-05-02T14:20:52.690Z,27.53
2019-05-02T14:23:22.178Z,32.07
2019-05-02T14:25:52.074Z,28.13
2019-05-02T14:28:22.272Z,25.27
2019-05-02T14:30:52.477Z,27.23
2019-05-02T14:33:23.392Z,24.87
2019-05-02T14:35:52.705Z,25.23
2019-05-02T14:38:22.071Z,24.80
2019-05-02T14:41:12.432Z,26.23
2019-05-02T14:44:09.049Z,23.33
2019-05-02T14:46:39.441Z,29.03
2019-05-02T14:49:07.545Z,25.37
2019-05-02T14:51:36.955Z,23.40
2019-05-02T14:54:08.416Z,25.60
2019-05-02T14:57:02.011Z,22.27
2019-05-02T14:59:32.128Z,21.60
2019-05-02T15:02:07.478Z,21.47
2019-05-02T15:04:38.126Z,17.17
2019-05-02T15:07:04.947Z,22.83
2019-05-02T15:09:36.107Z,21.67
2019-05-02T15:12:13.506Z,20.37
2019-05-02T15:14:34.645Z,18.10
2019-05-02T15:17:04.044Z,23.77
2019-05-02T15:19:32.885Z,23.73
2019-05-02T15:22:02.414Z,22.43
2019-05-02T15:24:33.210Z,22.47
2019-05-02T15:27:03.960Z,23.20
2019-05-02T15:29:32.193Z,22.03
2019-05-02T15:32:25.475Z,19.70
2019-05-02T15:35:05.690Z,21.93
2019-05-02T15:37:35.807Z,19.80
2019-05-02T15:42:35.124Z,16.10
2019-05-02T15:45:05.685Z,20.23
2019-05-02T15:47:37.182Z,19.97
2019-05-02T15:50:04.848Z,21.40
2019-05-02T15:52:35.505Z,20.00
2019-05-02T15:55:04.586Z,19.80
2019-05-02T15:57:43.127Z,19.60
2019-05-02T16:00:05.815Z,19.53
2019-05-02T16:02:34.763Z,20.80
2019-05-02T16:05:05.488Z,19.23
2019-05-02T16:07:37.903Z,17.47
2019-05-02T16:10:04.967Z,15.43
2019-05-02T16:12:36.037Z,16.23
2019-05-02T16:15:13.039Z,19.93
2019-05-02T16:17:35.622Z,16.83
2019-05-02T16:20:13.363Z,13.47
2019-05-02T16:22:46.227Z,14.67
2019-05-02T16:25:12.236Z,15.53
2019-05-02T16:27:45.278Z,14.40
2019-05-02T16:30:17.797Z,9.73
2019-05-02T16:32:52.262Z,11.93
2019-05-02T16:35:22.322Z,8.37
2019-05-02T16:37:52.338Z,7.20
2019-05-02T16:40:29.457Z,10.60
2019-05-02T16:42:51.917Z,6.23
2019-05-02T16:45:22.080Z,8.33
2019-05-02T16:47:58.679Z,5.60
2019-05-02T16:50:22.897Z,6.03
2019-05-02T16:52:53.007Z,9.27
2019-05-02T16:55:26.614Z,6.37
2019-05-02T16:57:56.856Z,4.00
2019-05-02T17:00:25.008Z,4.63
2019-05-02T17:02:53.654Z,8.57
2019-05-02T17:05:22.124Z,7.33
2019-05-02T17:08:20.205Z,4.57
2019-05-02T17:11:08.884Z,2.90
2019-05-02T17:13:37.181Z,5.47
2019-05-02T17:16:12.959Z,5.57
2019-05-02T17:18:36.021Z,4.03
2019-05-02T17:21:04.406Z,4.80
2019-05-02T17:23:32.942Z,3.03
2019-05-02T17:26:01.720Z,4.87
2019-05-02T17:28:31.617Z,2.67
2019-05-02T17:31:00.308Z,4.87
2019-05-02T17:33:28.744Z,4.57
2019-05-02T17:35:57.386Z,6.08
2019-05-02T17:38:29.161Z,4.87
2019-05-02T17:40:59.288Z,1.57
2019-05-02T17:43:26.026Z,6.40
2019-05-02T17:45:56.246Z,4.03
2019-05-02T17:48:25.122Z,5.93
2019-05-02T17:51:08.791Z,8.07
2019-05-02T17:53:41.315Z,8.53
2019-05-02T17:56:13.076Z,8.47
2019-05-02T17:58:39.754Z,3.77
2019-05-02T18:01:13.565Z,5.10
2019-05-02T18:03:42.518Z,6.17
2019-05-02T18:06:12.633Z,7.23
2019-05-02T18:08:41.750Z,2.50
2019-05-02T18:11:10.054Z,6.47
2019-05-02T18:13:38.513Z,2.63
2019-05-02T18:16:15.061Z,4.87
2019-05-02T18:18:42.649Z,5.20
2019-05-02T18:21:07.680Z,5.87
2019-05-02T18:23:36.662Z,6.63
2019-05-02T18:26:06.349Z,7.47
2019-05-02T18:28:46.049Z,7.10
2019-05-02T18:31:05.920Z,3.47
2019-05-02T18:33:35.834Z,5.73
2019-05-02T18:36:05.047Z,7.43
2019-05-02T18:38:33.224Z,8.27
2019-05-02T18:41:05.972Z,6.47
2019-05-02T18:43:36.053Z,9.27
2019-05-02T18:46:07.479Z,9.47
2019-05-02T18:48:36.701Z,7.07
2019-05-02T18:51:04.142Z,7.13
2019-05-02T18:53:32.743Z,8.27
2019-05-02T18:56:03.454Z,12.63
2019-05-02T18:58:32.001Z,8.53
2019-05-02T19:01:00.328Z,4.00
2019-05-02T19:03:28.796Z,15.13
2019-05-02T19:05:58.328Z,6.57
2019-05-02T19:08:33.684Z,6.63
2019-05-02T19:11:08.967Z,4.67
2019-05-02T19:13:32.703Z,7.93
2019-05-02T19:16:02.045Z,7.30
2019-05-02T19:18:32.403Z,5.93
2019-05-02T19:21:04.630Z,8.27
2019-05-02T19:23:34.657Z,6.77
2019-05-02T19:26:09.843Z,8.43
2019-05-02T19:28:57.926Z,5.30
2019-05-02T19:31:36.614Z,7.43
2019-05-02T19:34:04.135Z,8.23
2019-05-02T19:36:32.819Z,5.37
2019-05-02T19:39:06.303Z,4.53
2019-05-02T19:41:32.075Z,11.20
2019-05-02T19:44:02.318Z,6.97
2019-05-02T19:46:34.595Z,3.50
2019-05-02T19:49:02.092Z,5.07
2019-05-02T19:51:31.747Z,3.70
2019-05-02T19:54:03.230Z,6.00
2019-05-02T19:56:33.385Z,3.83
2019-05-02T19:59:02.566Z,6.50
2019-05-02T20:01:31.017Z,4.20
2019-05-02T20:04:04.397Z,6.83
2019-05-02T20:06:32.436Z,5.57
2019-05-02T20:09:04.792Z,4.97
2019-05-02T20:11:33.019Z,7.10
2019-05-02T20:14:07.007Z,4.63
2019-05-02T20:16:47.821Z,7.03
2019-05-02T20:19:17.377Z,7.53
2019-05-02T20:22:06.648Z,6.93
2019-05-02T20:24:59.864Z,4.93
2019-05-02T20:27:28.144Z,8.10
2019-05-02T20:29:55.779Z,8.23
2019-05-02T20:32:24.641Z,8.13
2019-05-02T20:34:52.875Z,8.17
2019-05-02T20:37:22.155Z,6.37
2019-05-02T20:39:51.079Z,8.97
2019-05-02T20:42:19.253Z,6.27
2019-05-02T20:44:47.409Z,9.60
2019-05-02T20:47:24.147Z,8.97
2019-05-02T20:49:52.495Z,8.03
2019-05-02T20:52:21.759Z,8.80
2019-05-02T20:54:52.192Z,7.80
2019-05-02T20:57:20.558Z,10.70
2019-05-02T20:59:48.963Z,5.57
2019-05-02T21:02:17.207Z,5.67
2019-05-02T21:04:45.358Z,11.07
2019-05-02T21:07:33.264Z,5.50
2019-05-02T21:10:06.822Z,5.77
2019-05-02T21:12:35.105Z,7.23
2019-05-02T21:15:04.052Z,8.67
2019-05-02T21:17:32.760Z,8.47
2019-05-02T21:20:01.923Z,8.23
2019-05-02T21:22:32.730Z,13.60
2019-05-02T21:25:02.458Z,10.10
2019-05-02T21:27:32.388Z,8.17
2019-05-02T21:30:01.507Z,5.90
2019-05-02T21:32:32.044Z,9.20
2019-05-02T21:34:59.948Z,8.93
2019-05-02T21:37:28.656Z,6.63
2019-05-02T21:39:57.264Z,11.33
2019-05-02T21:42:25.520Z,8.10
2019-05-02T21:44:55.033Z,5.93
2019-05-02T21:47:23.228Z,3.47
2019-05-02T21:50:06.587Z,9.80
2019-05-02T21:52:54.300Z,8.70
2019-05-02T21:55:44.535Z,8.20
2019-05-02T21:58:12.722Z,5.40
2019-05-02T22:00:52.772Z,8.30
2019-05-02T22:03:21.720Z,8.30
2019-05-02T22:05:51.800Z,6.77
2019-05-02T22:08:21.672Z,9.20
2019-05-02T22:10:52.140Z,8.33
2019-05-02T22:13:22.241Z,12.20
2019-05-02T22:15:51.653Z,6.40
2019-05-02T22:18:21.678Z,6.40
2019-05-02T22:20:52.172Z,9.27
2019-05-02T22:23:20.415Z,4.43
2019-05-02T22:25:48.879Z,10.20
2019-05-02T22:28:17.033Z,8.90
2019-05-02T22:30:45.275Z,6.33
2019-05-02T22:33:14.068Z,8.10
2019-05-02T22:35:43.389Z,6.13
2019-05-02T22:38:42.224Z,6.70
2019-05-02T22:41:12.151Z,12.60
2019-05-02T22:43:42.149Z,5.53
2019-05-02T22:46:14.076Z,7.13
2019-05-02T22:48:42.786Z,12.37
2019-05-02T22:51:12.057Z,5.17
2019-05-02T22:53:41.737Z,5.60
2019-05-02T22:56:13.195Z,7.20
2019-05-02T22:58:42.017Z,4.53
2019-05-02T23:01:10.409Z,8.57
2019-05-02T23:03:38.912Z,5.83
2019-05-02T23:06:07.909Z,8.97
2019-05-02T23:08:36.402Z,6.33
2019-05-02T23:11:05.241Z,7.13
2019-05-02T23:13:33.723Z,8.23
2019-05-02T23:16:02.916Z,9.80
2019-05-02T23:18:31.964Z,5.43
2019-05-02T23:21:02.130Z,7.40
2019-05-02T23:23:32.588Z,7.70
2019-05-02T23:26:32.640Z,6.57
2019-05-02T23:29:02.304Z,6.73
2019-05-02T23:31:31.767Z,9.30
2019-05-02T23:34:02.093Z,4.23
2019-05-02T23:36:32.439Z,10.30
2019-05-02T23:39:02.680Z,6.03
2019-05-02T23:41:32.726Z,9.10
2019-05-02T23:44:02.815Z,4.67
2019-05-02T23:46:31.575Z,4.33
2019-05-02T23:49:01.955Z,3.20
2019-05-02T23:51:32.052Z,6.60
2019-05-02T23:54:02.123Z,6.00
2019-05-02T23:56:32.534Z,5.37
2019-05-02T23:59:02.696Z,5.50
